nws-alerts: Checking more than four warning/county codes can delay the loading of your pages. You should use a cron job to get the data.
EllijayWeather Station Historical Data
Daily Summary for February 25, 2019 Units:  English    Metric   Both
Daily Weekly Monthly Yearly Custom
  High: Low: Average:
Temperature: 56.7 °F 28.9 °F 42 °F
Dew Point: 31.1 °F 13.3 °F 22.7 °F
Humidity: 84% 20% 52%
Wind Speed: 8.9mph 0.0mph 0.5mph
Wind Gust: 15.0mph - -
Wind- - WSW
Pressure: 30.49 in 30.29 in -
Precipitation: 0.00 in    
Historical Graphs
 
 
Tabular Data for February 25, 2019
Time Temperature Dew Point Pressure Wind Wind Speed Wind Gust Humidity Rainfall Rate (Hourly) solar
00:04 38.3 °F 23.5 °F 30.30 in Calm   1.0 mph 55% 0.00 in meteobridge W/m2
00:09 38.5 °F 21.0 °F 30.30 in NNW 0.9 mph 3.0 mph 49% 0.00 in meteobridge W/m2
00:14 38.7 °F 22.1 °F 30.30 in NW 2.9 mph 5.0 mph 51% 0.00 in meteobridge W/m2
00:19 39.0 °F 22.8 °F 30.30 in Calm   1.0 mph 52% 0.00 in meteobridge W/m2
00:24 38.8 °F 22.3 °F 30.30 in Calm     51% 0.00 in meteobridge W/m2
00:29 39.0 °F 25.2 °F 30.30 in Calm   1.0 mph 57% 0.00 in meteobridge W/m2
00:34 38.8 °F 21.4 °F 30.30 in Calm     49% 0.00 in meteobridge W/m2
00:39 38.8 °F 20.3 °F 30.30 in Calm   3.0 mph 47% 0.00 in meteobridge W/m2
00:44 38.8 °F 21.7 °F 30.29 in Calm   1.0 mph 50% 0.00 in meteobridge W/m2
00:49 38.7 °F 22.1 °F 30.30 in Calm     51% 0.00 in meteobridge W/m2
00:54 38.1 °F 23.4 °F 30.30 in Calm     55% 0.00 in meteobridge W/m2
00:59 37.9 °F 25.3 °F 30.30 in Calm     60% 0.00 in meteobridge W/m2
01:04 37.6 °F 25.7 °F 30.30 in Calm     62% 0.00 in meteobridge W/m2
01:09 37.0 °F 25.7 °F 30.30 in Calm     63% 0.00 in meteobridge W/m2
01:14 36.9 °F 24.6 °F 30.30 in Calm     61% 0.00 in meteobridge W/m2
01:19 36.3 °F 23.4 °F 30.30 in Calm     59% 0.00 in meteobridge W/m2
01:24 36.1 °F 22.5 °F 30.30 in Calm     57% 0.00 in meteobridge W/m2
01:29 36.0 °F 22.3 °F 30.30 in Calm     57% 0.00 in meteobridge W/m2
01:34 35.6 °F 23.0 °F 30.30 in Calm     60% 0.00 in meteobridge W/m2
01:39 35.2 °F 24.6 °F 30.30 in Calm     65% 0.00 in meteobridge W/m2
01:44 35.1 °F 24.1 °F 30.30 in Calm     64% 0.00 in meteobridge W/m2
01:49 34.9 °F 25.3 °F 30.31 in Calm     68% 0.00 in meteobridge W/m2
01:54 34.5 °F 23.9 °F 30.31 in Calm     65% 0.00 in meteobridge W/m2
01:59 34.3 °F 24.1 °F 30.31 in Calm     66% 0.00 in meteobridge W/m2
02:04 34.2 °F 24.6 °F 30.31 in Calm     68% 0.00 in meteobridge W/m2
02:09 34.0 °F 25.2 °F 30.31 in Calm     70% 0.00 in meteobridge W/m2
02:14 33.6 °F 24.8 °F 30.31 in Calm     70% 0.00 in meteobridge W/m2
02:19 33.6 °F 25.2 °F 30.31 in Calm     71% 0.00 in meteobridge W/m2
02:24 33.4 °F 24.8 °F 30.31 in Calm   1.0 mph 70% 0.00 in meteobridge W/m2
02:29 33.4 °F 25.3 °F 30.31 in Calm     72% 0.00 in meteobridge W/m2
02:34 33.4 °F 27.0 °F 30.32 in Calm     77% 0.00 in meteobridge W/m2
02:39 33.4 °F 27.0 °F 30.32 in Calm     77% 0.00 in meteobridge W/m2
02:44 33.3 °F 26.6 °F 30.32 in Calm     76% 0.00 in meteobridge W/m2
02:49 33.3 °F 25.5 °F 30.33 in Calm     73% 0.00 in meteobridge W/m2
02:54 33.3 °F 26.6 °F 30.33 in Calm     76% 0.00 in meteobridge W/m2
02:59 33.3 °F 27.1 °F 30.33 in Calm     78% 0.00 in meteobridge W/m2
03:04 33.3 °F 27.5 °F 30.32 in Calm     79% 0.00 in meteobridge W/m2
03:09 33.3 °F 27.1 °F 30.33 in Calm     78% 0.00 in meteobridge W/m2
03:14 33.3 °F 25.9 °F 30.33 in Calm   2.0 mph 74% 0.00 in meteobridge W/m2
03:19 33.3 °F 27.5 °F 30.33 in Calm     79% 0.00 in meteobridge W/m2
03:24 33.3 °F 25.2 °F 30.33 in Calm   2.0 mph 72% 0.00 in meteobridge W/m2
03:29 33.4 °F 27.0 °F 30.34 in Calm     77% 0.00 in meteobridge W/m2
03:34 33.6 °F 26.6 °F 30.33 in Calm   1.0 mph 75% 0.00 in meteobridge W/m2
03:39 33.6 °F 27.1 °F 30.34 in Calm     77% 0.00 in meteobridge W/m2
03:44 33.6 °F 25.5 °F 30.34 in Calm     72% 0.00 in meteobridge W/m2
03:49 34.0 °F 25.2 °F 30.34 in Calm     70% 0.00 in meteobridge W/m2
03:54 33.8 °F 27.0 °F 30.34 in Calm     76% 0.00 in meteobridge W/m2
03:59 33.8 °F 27.0 °F 30.34 in NNW 0.9 mph 1.0 mph 76% 0.00 in meteobridge W/m2
04:04 33.6 °F 27.1 °F 30.34 in Calm     77% 0.00 in meteobridge W/m2
04:09 33.3 °F 26.8 °F 30.35 in Calm     77% 0.00 in meteobridge W/m2
04:14 32.7 °F 27.0 °F 30.35 in Calm     79% 0.00 in meteobridge W/m2
04:19 32.4 °F 27.0 °F 30.35 in Calm     80% 0.00 in meteobridge W/m2
04:24 31.8 °F 26.4 °F 30.35 in Calm     80% 0.00 in meteobridge W/m2
04:29 31.6 °F 26.2 °F 30.36 in Calm     80% 0.00 in meteobridge W/m2
04:34 31.5 °F 26.1 °F 30.36 in Calm     80% 0.00 in meteobridge W/m2
04:39 31.1 °F 26.2 °F 30.35 in Calm     82% 0.00 in meteobridge W/m2
04:44 30.9 °F 26.4 °F 30.36 in Calm     83% 0.00 in meteobridge W/m2
04:49 30.7 °F 25.9 °F 30.36 in Calm     82% 0.00 in meteobridge W/m2
04:54 30.6 °F 25.7 °F 30.36 in Calm     82% 0.00 in meteobridge W/m2
04:59 30.2 °F 25.3 °F 30.36 in Calm     82% 0.00 in meteobridge W/m2
05:04 30.0 °F 25.0 °F 30.37 in Calm     81% 0.00 in meteobridge W/m2
05:09 29.8 °F 25.0 °F 30.37 in Calm     82% 0.00 in meteobridge W/m2
05:14 29.7 °F 24.8 °F 30.37 in Calm     82% 0.00 in meteobridge W/m2
05:19 29.5 °F 25.0 °F 30.37 in Calm     83% 0.00 in meteobridge W/m2
05:24 29.3 °F 23.9 °F 30.37 in Calm   1.0 mph 80% 0.00 in meteobridge W/m2
05:29 29.1 °F 24.3 °F 30.37 in Calm     82% 0.00 in meteobridge W/m2
05:34 28.9 °F 24.4 °F 30.38 in Calm     83% 0.00 in meteobridge W/m2
05:39 28.9 °F 24.8 °F 30.38 in Calm     84% 0.00 in meteobridge W/m2
05:44 28.9 °F 24.4 °F 30.39 in Calm     83% 0.00 in meteobridge W/m2
05:49 28.9 °F 24.4 °F 30.39 in Calm   1.0 mph 83% 0.00 in meteobridge W/m2
05:54 28.9 °F 24.1 °F 30.39 in Calm     82% 0.00 in meteobridge W/m2
05:59 28.9 °F 24.8 °F 30.40 in Calm     84% 0.00 in meteobridge W/m2
06:04 28.9 °F 24.4 °F 30.40 in Calm     83% 0.00 in meteobridge W/m2
06:09 28.9 °F 24.8 °F 30.40 in Calm     84% 0.00 in meteobridge W/m2
06:14 29.1 °F 24.6 °F 30.41 in Calm     83% 0.00 in meteobridge W/m2
06:19 29.1 °F 24.6 °F 30.40 in Calm     83% 0.00 in meteobridge W/m2
06:24 29.3 °F 24.3 °F 30.40 in Calm     81% 0.00 in meteobridge W/m2
06:29 29.3 °F 24.4 °F 30.41 in Calm     82% 0.00 in meteobridge W/m2
06:34 29.5 °F 24.4 °F 30.41 in Calm     81% 0.00 in meteobridge W/m2
06:39 29.5 °F 24.4 °F 30.42 in Calm     81% 0.00 in meteobridge W/m2
06:44 29.5 °F 23.7 °F 30.42 in Calm     79% 0.00 in meteobridge W/m2
06:49 29.5 °F 24.1 °F 30.43 in Calm     80% 0.00 in meteobridge W/m2
06:54 29.5 °F 23.5 °F 30.43 in Calm     78% 0.00 in meteobridge W/m2
06:59 29.5 °F 23.7 °F 30.43 in Calm     79% 0.00 in meteobridge W/m2
07:04 29.5 °F 23.5 °F 30.43 in Calm     78% 0.00 in meteobridge W/m2
07:09 29.7 °F 24.3 °F 30.44 in Calm     80% 0.00 in meteobridge W/m2
07:14 29.7 °F 24.6 °F 30.45 in Calm     81% 0.00 in meteobridge W/m2
07:19 29.8 °F 23.5 °F 30.45 in Calm     77% 0.00 in meteobridge W/m2
07:24 30.0 °F 23.4 °F 30.45 in Calm     76% 0.00 in meteobridge W/m2
07:29 30.0 °F 23.0 °F 30.45 in Calm     75% 0.00 in meteobridge W/m2
07:34 30.0 °F 23.4 °F 30.45 in Calm     76% 0.00 in meteobridge W/m2
07:39 30.2 °F 22.6 °F 30.45 in Calm     73% 0.00 in meteobridge W/m2
07:44 30.4 °F 22.8 °F 30.45 in Calm     73% 0.00 in meteobridge W/m2
07:49 30.6 °F 23.2 °F 30.45 in Calm     74% 0.00 in meteobridge W/m2
07:54 30.7 °F 22.5 °F 30.45 in Calm     71% 0.00 in meteobridge W/m2
07:59 31.3 °F 22.6 °F 30.45 in Calm   1.0 mph 70% 0.00 in meteobridge W/m2
08:04 31.6 °F 21.9 °F 30.45 in Calm     67% 0.00 in meteobridge W/m2
08:09 32.2 °F 23.2 °F 30.45 in Calm     69% 0.00 in meteobridge W/m2
08:14 32.5 °F 23.2 °F 30.45 in Calm     68% 0.00 in meteobridge W/m2
08:19 33.1 °F 21.9 °F 30.45 in Calm   1.0 mph 63% 0.00 in meteobridge W/m2
08:24 34.0 °F 19.6 °F 30.45 in Calm   3.0 mph 55% 0.00 in meteobridge W/m2
08:29 35.2 °F 19.4 °F 30.45 in NW 2.0 mph 3.0 mph 52% 0.00 in meteobridge W/m2
08:34 36.3 °F 18.5 °F 30.45 in NNE 0.9 mph 7.0 mph 48% 0.00 in meteobridge W/m2
08:39 37.2 °F 19.4 °F 30.46 in Calm   4.0 mph 48% 0.00 in meteobridge W/m2
08:44 37.8 °F 21.7 °F 30.46 in Calm   3.0 mph 52% 0.00 in meteobridge W/m2
08:49 38.5 °F 18.5 °F 30.46 in WNW 0.9 mph 10.0 mph 44% 0.00 in meteobridge W/m2
08:54 38.8 °F 18.3 °F 30.46 in North 0.9 mph 6.0 mph 43% 0.00 in meteobridge W/m2
08:59 39.2 °F 19.0 °F 30.46 in Calm   11.0 mph 44% 0.00 in meteobridge W/m2
09:04 39.6 °F 17.8 °F 30.46 in NW 0.9 mph 6.0 mph 41% 0.00 in meteobridge W/m2
09:09 39.9 °F 19.2 °F 30.46 in NW 2.0 mph 6.0 mph 43% 0.00 in meteobridge W/m2
09:14 40.3 °F 19.0 °F 30.46 in WNW 2.9 mph 9.0 mph 42% 0.00 in meteobridge W/m2
09:19 40.5 °F 18.0 °F 30.46 in Calm   6.0 mph 40% 0.00 in meteobridge W/m2
09:24 40.6 °F 17.6 °F 30.46 in Calm   4.0 mph 39% 0.00 in meteobridge W/m2
09:29 41.0 °F 18.0 °F 30.46 in Calm   3.0 mph 39% 0.00 in meteobridge W/m2
09:34 41.2 °F 17.4 °F 30.46 in WNW 4.9 mph 12.0 mph 38% 0.00 in meteobridge W/m2
09:39 41.4 °F 17.1 °F 30.47 in West 2.0 mph 11.0 mph 37% 0.00 in meteobridge W/m2
09:44 41.5 °F 17.8 °F 30.46 in SE 6.9 mph 7.0 mph 38% 0.00 in meteobridge W/m2
09:49 41.7 °F 16.7 °F 30.46 in East 4.0 mph 8.0 mph 36% 0.00 in meteobridge W/m2
09:54 42.3 °F 17.2 °F 30.47 in WNW 4.0 mph 7.0 mph 36% 0.00 in meteobridge W/m2
09:59 42.3 °F 16.5 °F 30.47 in ESE 2.0 mph 12.0 mph 35% 0.00 in meteobridge W/m2
10:04 42.6 °F 19.4 °F 30.47 in West 0.9 mph 5.0 mph 39% 0.00 in meteobridge W/m2
10:09 43.3 °F 16.9 °F 30.47 in NW 8.9 mph 11.0 mph 34% 0.00 in meteobridge W/m2
10:14 43.9 °F 17.2 °F 30.47 in NNW 4.0 mph 8.0 mph 34% 0.00 in meteobridge W/m2
10:19 44.1 °F 16.2 °F 30.48 in NE 4.9 mph 7.0 mph 32% 0.00 in meteobridge W/m2
10:24 44.4 °F 16.3 °F 30.48 in Calm   5.0 mph 32% 0.00 in meteobridge W/m2
10:29 45.0 °F 16.9 °F 30.48 in Calm   7.0 mph 32% 0.00 in meteobridge W/m2
10:34 45.5 °F 16.5 °F 30.48 in Calm   9.0 mph 31% 0.00 in meteobridge W/m2
10:39 45.7 °F 16.7 °F 30.49 in Calm   5.0 mph 31% 0.00 in meteobridge W/m2
10:44 45.7 °F 16.0 °F 30.49 in NNW 4.9 mph 6.0 mph 30% 0.00 in meteobridge W/m2
10:49 45.9 °F 16.2 °F 30.49 in East 6.0 mph 15.0 mph 30% 0.00 in meteobridge W/m2
10:54 46.0 °F 15.6 °F 30.49 in NW 2.0 mph 6.0 mph 29% 0.00 in meteobridge W/m2
10:59 46.0 °F 16.3 °F 30.48 in NNE 0.9 mph 5.0 mph 30% 0.00 in meteobridge W/m2
11:04 46.4 °F 15.8 °F 30.48 in NNW 0.9 mph 4.0 mph 29% 0.00 in meteobridge W/m2
11:09 46.8 °F 15.4 °F 30.48 in NW 0.9 mph 5.0 mph 28% 0.00 in meteobridge W/m2
11:14 46.9 °F 15.4 °F 30.48 in Calm   6.0 mph 28% 0.00 in meteobridge W/m2
11:19 47.1 °F 14.9 °F 30.49 in Calm   4.0 mph 27% 0.00 in meteobridge W/m2
11:24 46.9 °F 14.7 °F 30.49 in NE 2.0 mph 8.0 mph 27% 0.00 in meteobridge W/m2
11:29 47.5 °F 14.4 °F 30.49 in NW 2.0 mph 9.0 mph 26% 0.00 in meteobridge W/m2
11:34 47.8 °F 15.4 °F 30.49 in NW 0.9 mph 5.0 mph 27% 0.00 in meteobridge W/m2
11:39 48.4 °F 16.7 °F 30.49 in WNW 0.9 mph 6.0 mph 28% 0.00 in meteobridge W/m2
11:44 48.7 °F 15.4 °F 30.48 in Calm   6.0 mph 26% 0.00 in meteobridge W/m2
11:49 49.1 °F 16.5 °F 30.48 in ENE 2.0 mph 9.0 mph 27% 0.00 in meteobridge W/m2
11:54 49.5 °F 15.1 °F 30.48 in West 6.9 mph 11.0 mph 25% 0.00 in meteobridge W/m2
11:59 49.6 °F 17.8 °F 30.47 in NW 4.0 mph 6.0 mph 28% 0.00 in meteobridge W/m2
12:04 49.8 °F 14.5 °F 30.48 in Calm   5.0 mph 24% 0.00 in meteobridge W/m2
12:09 50.4 °F 14.9 °F 30.48 in WNW 4.9 mph 7.0 mph 24% 0.00 in meteobridge W/m2
12:14 50.5 °F 16.0 °F 30.48 in WNW 4.0 mph 4.0 mph 25% 0.00 in meteobridge W/m2
12:19 50.9 °F 16.3 °F 30.49 in WNW 2.0 mph 7.0 mph 25% 0.00 in meteobridge W/m2
12:24 50.7 °F 16.2 °F 30.49 in Calm   4.0 mph 25% 0.00 in meteobridge W/m2
12:29 51.1 °F 14.5 °F 30.49 in NW 2.9 mph 6.0 mph 23% 0.00 in meteobridge W/m2
12:34 51.1 °F 16.5 °F 30.49 in Calm   3.0 mph 25% 0.00 in meteobridge W/m2
12:39 51.3 °F 13.6 °F 30.49 in Calm   5.0 mph 22% 0.00 in meteobridge W/m2
12:44 51.4 °F 13.8 °F 30.48 in Calm   3.0 mph 22% 0.00 in meteobridge W/m2
12:49 52.0 °F 14.4 °F 30.48 in NE 0.9 mph 9.0 mph 22% 0.00 in meteobridge W/m2
12:54 52.2 °F 15.4 °F 30.48 in Calm   7.0 mph 23% 0.00 in meteobridge W/m2
12:59 52.3 °F 13.5 °F 30.48 in ESE 2.0 mph 3.0 mph 21% 0.00 in meteobridge W/m2
13:04 52.5 °F 14.7 °F 30.48 in Calm   9.0 mph 22% 0.00 in meteobridge W/m2
13:09 52.9 °F 15.1 °F 30.48 in West 2.0 mph 8.0 mph 22% 0.00 in meteobridge W/m2
13:14 53.2 °F 15.4 °F 30.47 in NW 4.9 mph 7.0 mph 22% 0.00 in meteobridge W/m2
13:19 53.4 °F 13.3 °F 30.48 in NW 4.0 mph 7.0 mph 20% 0.00 in meteobridge W/m2
13:24 53.8 °F 14.7 °F 30.47 in Calm   5.0 mph 21% 0.00 in meteobridge W/m2
13:29 53.8 °F 13.6 °F 30.47 in Calm   2.0 mph 20% 0.00 in meteobridge W/m2
13:34 54.0 °F 14.9 °F 30.47 in Calm   2.0 mph 21% 0.00 in meteobridge W/m2
13:39 54.1 °F 16.2 °F 30.47 in Calm   2.0 mph 22% 0.00 in meteobridge W/m2
13:44 54.1 °F 16.2 °F 30.47 in Calm   7.0 mph 22% 0.00 in meteobridge W/m2
13:49 54.1 °F 15.1 °F 30.47 in Calm   2.0 mph 21% 0.00 in meteobridge W/m2
13:54 54.3 °F 17.2 °F 30.46 in Calm     23% 0.00 in meteobridge W/m2
13:59 54.9 °F 15.6 °F 30.46 in Calm   2.0 mph 21% 0.00 in meteobridge W/m2
14:04 54.9 °F 14.5 °F 30.46 in NNW 2.9 mph 6.0 mph 20% 0.00 in meteobridge W/m2
14:09 55.0 °F 15.8 °F 30.46 in Calm   3.0 mph 21% 0.00 in meteobridge W/m2
14:14 54.9 °F 14.5 °F 30.46 in NW 2.0 mph 6.0 mph 20% 0.00 in meteobridge W/m2
14:19 54.9 °F 18.7 °F 30.45 in WNW 0.9 mph 4.0 mph 24% 0.00 in meteobridge W/m2
14:24 55.0 °F 18.0 °F 30.45 in ENE 6.9 mph 7.0 mph 23% 0.00 in meteobridge W/m2
14:29 55.2 °F 14.9 °F 30.45 in NW 0.9 mph 4.0 mph 20% 0.00 in meteobridge W/m2
14:34 55.2 °F 14.9 °F 30.45 in Calm   6.0 mph 20% 0.00 in meteobridge W/m2
14:39 55.2 °F 16.0 °F 30.45 in WNW 2.9 mph 5.0 mph 21% 0.00 in meteobridge W/m2
14:44 55.4 °F 16.2 °F 30.45 in NW 0.9 mph 5.0 mph 21% 0.00 in meteobridge W/m2
14:49 55.6 °F 17.2 °F 30.44 in Calm     22% 0.00 in meteobridge W/m2
14:54 55.9 °F 15.4 °F 30.44 in NNW 0.9 mph 6.0 mph 20% 0.00 in meteobridge W/m2
14:59 56.1 °F 15.6 °F 30.44 in Calm   4.0 mph 20% 0.00 in meteobridge W/m2
15:04 55.9 °F 15.4 °F 30.44 in Calm   6.0 mph 20% 0.00 in meteobridge W/m2
15:09 55.9 °F 17.6 °F 30.43 in Calm   1.0 mph 22% 0.00 in meteobridge W/m2
15:14 56.1 °F 16.7 °F 30.43 in Calm     21% 0.00 in meteobridge W/m2
15:19 56.1 °F 16.7 °F 30.43 in Calm   2.0 mph 21% 0.00 in meteobridge W/m2
15:24 55.9 °F 16.5 °F 30.43 in Calm   1.0 mph 21% 0.00 in meteobridge W/m2
15:29 55.9 °F 15.4 °F 30.43 in Calm   4.0 mph 20% 0.00 in meteobridge W/m2
15:34 55.9 °F 15.4 °F 30.43 in Calm   6.0 mph 20% 0.00 in meteobridge W/m2
15:39 56.1 °F 17.8 °F 30.43 in Calm   3.0 mph 22% 0.00 in meteobridge W/m2
15:44 56.5 °F 18.1 °F 30.43 in Calm   1.0 mph 22% 0.00 in meteobridge W/m2
15:49 56.5 °F 17.1 °F 30.42 in Calm   1.0 mph 21% 0.00 in meteobridge W/m2
15:54 56.5 °F 17.1 °F 30.42 in Calm   2.0 mph 21% 0.00 in meteobridge W/m2
15:59 56.7 °F 20.3 °F 30.42 in NNW 0.9 mph 1.0 mph 24% 0.00 in meteobridge W/m2
16:04 56.7 °F 17.2 °F 30.42 in Calm     21% 0.00 in meteobridge W/m2
16:09 56.5 °F 15.8 °F 30.42 in Calm     20% 0.00 in meteobridge W/m2
16:14 56.5 °F 18.1 °F 30.42 in Calm     22% 0.00 in meteobridge W/m2
16:19 56.3 °F 18.0 °F 30.42 in Calm   5.0 mph 22% 0.00 in meteobridge W/m2
16:24 56.5 °F 18.1 °F 30.42 in Calm   3.0 mph 22% 0.00 in meteobridge W/m2
16:29 56.5 °F 18.1 °F 30.42 in Calm   3.0 mph 22% 0.00 in meteobridge W/m2
16:34 56.5 °F 24.6 °F 30.42 in Calm     29% 0.00 in meteobridge W/m2
16:39 56.1 °F 17.8 °F 30.42 in Calm   1.0 mph 22% 0.00 in meteobridge W/m2
16:44 56.1 °F 17.8 °F 30.42 in Calm   4.0 mph 22% 0.00 in meteobridge W/m2
16:49 56.1 °F 18.9 °F 30.42 in Calm   1.0 mph 23% 0.00 in meteobridge W/m2
16:54 55.9 °F 19.6 °F 30.43 in Calm     24% 0.00 in meteobridge W/m2
16:59 55.9 °F 17.6 °F 30.43 in NNW 2.0 mph 2.0 mph 22% 0.00 in meteobridge W/m2
17:04 55.9 °F 17.6 °F 30.42 in NNW 0.9 mph 2.0 mph 22% 0.00 in meteobridge W/m2
17:09 55.9 °F 19.6 °F 30.42 in Calm     24% 0.00 in meteobridge W/m2
17:14 55.8 °F 17.4 °F 30.43 in Calm   1.0 mph 22% 0.00 in meteobridge W/m2
17:19 55.6 °F 23.9 °F 30.43 in Calm     29% 0.00 in meteobridge W/m2
17:24 55.2 °F 26.6 °F 30.43 in Calm   1.0 mph 33% 0.00 in meteobridge W/m2
17:29 54.9 °F 24.1 °F 30.43 in Calm     30% 0.00 in meteobridge W/m2
17:34 54.5 °F 28.0 °F 30.43 in Calm     36% 0.00 in meteobridge W/m2
17:39 54.0 °F 29.5 °F 30.44 in Calm   5.0 mph 39% 0.00 in meteobridge W/m2
17:44 53.4 °F 26.4 °F 30.44 in Calm     35% 0.00 in meteobridge W/m2
17:49 52.9 °F 28.6 °F 30.44 in Calm     39% 0.00 in meteobridge W/m2
17:54 52.5 °F 25.0 °F 30.44 in Calm     34% 0.00 in meteobridge W/m2
17:59 52.2 °F 27.3 °F 30.44 in Calm     38% 0.00 in meteobridge W/m2
18:04 51.6 °F 26.2 °F 30.44 in Calm     37% 0.00 in meteobridge W/m2
18:09 51.3 °F 25.9 °F 30.44 in Calm     37% 0.00 in meteobridge W/m2
18:14 50.7 °F 27.3 °F 30.44 in Calm     40% 0.00 in meteobridge W/m2
18:19 50.4 °F 26.4 °F 30.44 in Calm     39% 0.00 in meteobridge W/m2
18:24 50.2 °F 25.0 °F 30.45 in Calm     37% 0.00 in meteobridge W/m2
18:29 49.6 °F 25.0 °F 30.45 in Calm     38% 0.00 in meteobridge W/m2
18:33 49.5 °F 26.8 °F 30.45 in Calm     41% 0.00 in meteobridge W/m2
18:39 48.9 °F 25.0 °F 30.45 in Calm     39% 0.00 in meteobridge W/m2
18:43 48.6 °F 25.9 °F 30.45 in Calm     41% 0.00 in meteobridge W/m2
18:49 48.0 °F 25.5 °F 30.45 in Calm     41% 0.00 in meteobridge W/m2
18:54 47.7 °F 25.7 °F 30.45 in Calm     42% 0.00 in meteobridge W/m2
18:59 47.1 °F 25.7 °F 30.45 in Calm     43% 0.00 in meteobridge W/m2
19:04 46.8 °F 26.1 °F 30.45 in Calm     44% 0.00 in meteobridge W/m2
19:09 46.0 °F 25.9 °F 30.45 in Calm     45% 0.00 in meteobridge W/m2
19:14 45.7 °F 25.5 °F 30.45 in Calm     45% 0.00 in meteobridge W/m2
19:19 45.1 °F 26.1 °F 30.45 in Calm     47% 0.00 in meteobridge W/m2
19:24 45.0 °F 27.9 °F 30.45 in Calm     51% 0.00 in meteobridge W/m2
19:29 44.4 °F 27.5 °F 30.45 in Calm     51% 0.00 in meteobridge W/m2
19:34 44.1 °F 27.1 °F 30.45 in Calm     51% 0.00 in meteobridge W/m2
19:39 43.5 °F 27.5 °F 30.45 in Calm     53% 0.00 in meteobridge W/m2
19:44 43.3 °F 27.9 °F 30.46 in Calm     54% 0.00 in meteobridge W/m2
19:49 43.0 °F 27.5 °F 30.46 in Calm     54% 0.00 in meteobridge W/m2
19:54 42.6 °F 27.5 °F 30.46 in Calm     55% 0.00 in meteobridge W/m2
19:59 42.4 °F 27.9 °F 30.46 in Calm     56% 0.00 in meteobridge W/m2
20:04 42.1 °F 28.8 °F 30.47 in Calm     59% 0.00 in meteobridge W/m2
20:09 41.7 °F 28.0 °F 30.47 in Calm     58% 0.00 in meteobridge W/m2
20:14 41.5 °F 28.8 °F 30.46 in Calm     60% 0.00 in meteobridge W/m2
20:18 41.2 °F 27.9 °F 30.46 in Calm     59% 0.00 in meteobridge W/m2
20:24 40.8 °F 28.0 °F 30.46 in Calm     60% 0.00 in meteobridge W/m2
20:29 40.6 °F 28.6 °F 30.45 in Calm     62% 0.00 in meteobridge W/m2
20:34 40.5 °F 28.4 °F 30.45 in Calm     62% 0.00 in meteobridge W/m2
20:39 40.3 °F 29.1 °F 30.45 in Calm     64% 0.00 in meteobridge W/m2
20:44 39.9 °F 28.8 °F 30.46 in Calm     64% 0.00 in meteobridge W/m2
20:49 39.7 °F 28.9 °F 30.46 in Calm     65% 0.00 in meteobridge W/m2
20:54 39.6 °F 28.8 °F 30.45 in Calm     65% 0.00 in meteobridge W/m2
20:59 39.2 °F 29.1 °F 30.45 in Calm     67% 0.00 in meteobridge W/m2
21:04 39.0 °F 28.9 °F 30.44 in Calm     67% 0.00 in meteobridge W/m2
21:09 39.0 °F 29.7 °F 30.43 in Calm     69% 0.00 in meteobridge W/m2
21:14 39.0 °F 29.7 °F 30.43 in Calm     69% 0.00 in meteobridge W/m2
21:19 39.2 °F 30.6 °F 30.44 in Calm     71% 0.00 in meteobridge W/m2
21:24 39.2 °F 29.8 °F 30.45 in Calm     69% 0.00 in meteobridge W/m2
21:29 39.4 °F 30.0 °F 30.45 in Calm     69% 0.00 in meteobridge W/m2
21:34 39.4 °F 30.0 °F 30.45 in Calm     69% 0.00 in meteobridge W/m2
21:39 39.2 °F 29.8 °F 30.44 in Calm     69% 0.00 in meteobridge W/m2
21:44 39.2 °F 29.8 °F 30.45 in Calm     69% 0.00 in meteobridge W/m2
21:49 39.2 °F 29.8 °F 30.45 in Calm     69% 0.00 in meteobridge W/m2
21:54 39.0 °F 28.9 °F 30.45 in Calm     67% 0.00 in meteobridge W/m2
21:59 38.8 °F 29.1 °F 30.45 in Calm     68% 0.00 in meteobridge W/m2
22:04 38.7 °F 29.3 °F 30.45 in Calm     69% 0.00 in meteobridge W/m2
22:09 38.7 °F 29.7 °F 30.45 in Calm     70% 0.00 in meteobridge W/m2
22:13 38.5 °F 29.1 °F 30.45 in Calm     69% 0.00 in meteobridge W/m2
22:19 38.5 °F 29.1 °F 30.46 in Calm     69% 0.00 in meteobridge W/m2
22:24 38.1 °F 29.1 °F 30.46 in Calm     70% 0.00 in meteobridge W/m2
22:29 38.1 °F 29.8 °F 30.46 in Calm     72% 0.00 in meteobridge W/m2
22:34 38.1 °F 29.5 °F 30.46 in Calm     71% 0.00 in meteobridge W/m2
22:39 37.9 °F 29.7 °F 30.45 in Calm     72% 0.00 in meteobridge W/m2
22:44 37.9 °F 30.0 °F 30.45 in Calm     73% 0.00 in meteobridge W/m2
22:49 37.9 °F 30.0 °F 30.45 in Calm     73% 0.00 in meteobridge W/m2
22:54 38.1 °F 30.6 °F 30.45 in Calm     74% 0.00 in meteobridge W/m2
22:59 38.1 °F 30.6 °F 30.45 in Calm     74% 0.00 in meteobridge W/m2
23:04 38.1 °F 30.2 °F 30.45 in Calm     73% 0.00 in meteobridge W/m2
23:09 38.1 °F 30.2 °F 30.45 in Calm     73% 0.00 in meteobridge W/m2
23:14 38.1 °F 30.2 °F 30.45 in Calm     73% 0.00 in meteobridge W/m2
23:19 38.1 °F 30.2 °F 30.45 in Calm     73% 0.00 in meteobridge W/m2
23:24 38.1 °F 30.6 °F 30.44 in Calm     74% 0.00 in meteobridge W/m2
23:29 38.3 °F 30.7 °F 30.44 in Calm     74% 0.00 in meteobridge W/m2
23:34 38.3 °F 31.1 °F 30.45 in Calm     75% 0.00 in meteobridge W/m2
23:39 38.3 °F 30.7 °F 30.44 in Calm     74% 0.00 in meteobridge W/m2
23:44 38.1 °F 30.6 °F 30.44 in Calm     74% 0.00 in meteobridge W/m2
23:49 38.1 °F 30.9 °F 30.44 in Calm     75% 0.00 in meteobridge W/m2
23:54 37.9 °F 30.4 °F 30.44 in Calm     74% 0.00 in meteobridge W/m2
23:59 37.8 °F 30.2 °F 30.44 in Calm     74% 0.00 in meteobridge W/m2
EllijayWeather
Compliments of Weather Underground - 2.5 mb